createdAt,value
2023-02-05T00:00:50.413Z,94397.00
2023-02-05T00:01:50.545Z,94393.00
2023-02-05T00:02:50.451Z,94393.00
2023-02-05T00:03:50.470Z,94389.00
2023-02-05T00:04:50.500Z,94389.00
2023-02-05T00:05:50.520Z,94389.00
2023-02-05T00:06:50.517Z,94385.00
2023-02-05T00:07:50.542Z,94387.00
2023-02-05T00:08:50.556Z,94387.00
2023-02-05T00:09:50.573Z,94387.00
2023-02-05T00:10:50.598Z,94387.00
2023-02-05T00:11:50.614Z,94387.00
2023-02-05T00:12:50.629Z,94389.00
2023-02-05T00:13:50.651Z,94389.00
2023-02-05T00:14:50.667Z,94387.00
2023-02-05T00:15:50.688Z,94383.00
2023-02-05T00:16:50.723Z,94381.00
2023-02-05T00:17:50.723Z,94369.00
2023-02-05T00:18:50.719Z,94371.00
2023-02-05T00:19:50.748Z,94373.00
2023-02-05T00:20:50.758Z,94373.00
2023-02-05T00:21:50.779Z,94373.00
2023-02-05T00:22:50.787Z,94383.00
2023-02-05T00:23:50.814Z,94383.00
2023-02-05T00:24:50.822Z,94385.00
2023-02-05T00:25:50.831Z,94383.00
2023-02-05T00:26:50.843Z,94383.00
2023-02-05T00:27:50.941Z,94373.00
2023-02-05T00:28:50.912Z,94383.00
2023-02-05T00:29:50.903Z,94383.00
2023-02-05T00:30:50.996Z,94385.00
2023-02-05T00:31:50.961Z,94385.00
2023-02-05T00:32:50.975Z,94389.00
2023-02-05T00:33:51.001Z,94385.00
2023-02-05T00:34:51.018Z,94387.00
2023-02-05T00:35:51.028Z,94387.00
2023-02-05T00:36:51.047Z,94387.00
2023-02-05T00:37:51.065Z,94385.00
2023-02-05T00:38:51.072Z,94385.00
2023-02-05T00:39:51.089Z,94387.00
2023-02-05T00:40:51.123Z,94387.00
2023-02-05T00:41:51.127Z,94387.00
2023-02-05T00:42:51.134Z,94387.00
2023-02-05T00:43:51.158Z,94385.00
2023-02-05T00:44:51.174Z,94383.00
2023-02-05T00:45:51.234Z,94385.00
2023-02-05T00:46:51.228Z,94385.00
2023-02-05T00:47:51.243Z,94381.00
2023-02-05T00:48:51.262Z,94373.00
2023-02-05T00:49:51.293Z,94383.00
2023-02-05T00:50:51.298Z,94383.00
2023-02-05T00:51:51.323Z,94385.00
2023-02-05T00:52:51.339Z,94385.00
2023-02-05T00:53:52.304Z,94381.00
2023-02-05T00:54:51.417Z,94383.00
2023-02-05T00:55:51.459Z,94381.00
2023-02-05T00:56:51.493Z,94385.00
2023-02-05T00:57:51.538Z,94387.00
2023-02-05T00:58:51.580Z,94387.00
2023-02-05T00:59:51.632Z,94381.00
2023-02-05T01:00:51.660Z,94373.00
2023-02-05T01:01:51.726Z,94381.00
2023-02-05T01:02:51.775Z,94381.00
2023-02-05T01:03:51.813Z,94373.00
2023-02-05T01:04:51.843Z,94373.00
2023-02-05T01:05:51.878Z,94369.00
2023-02-05T01:06:51.914Z,94371.00
2023-02-05T01:07:51.961Z,94373.00
2023-02-05T01:08:51.993Z,94373.00
2023-02-05T01:09:52.041Z,94381.00
2023-02-05T01:10:52.082Z,94381.00
2023-02-05T01:11:52.131Z,94383.00
2023-02-05T01:12:52.171Z,94383.00
2023-02-05T01:13:52.213Z,94385.00
2023-02-05T01:14:52.265Z,94387.00
2023-02-05T01:15:52.331Z,94385.00
2023-02-05T01:16:52.336Z,94389.00
2023-02-05T01:17:52.376Z,94383.00
2023-02-05T01:18:52.432Z,94387.00
2023-02-05T01:19:52.480Z,94389.00
2023-02-05T01:20:52.513Z,94395.00
2023-02-05T01:21:52.553Z,94395.00
2023-02-05T01:22:52.599Z,94395.00
2023-02-05T01:23:52.641Z,94399.00
2023-02-05T01:24:52.686Z,94395.00
2023-02-05T01:25:52.724Z,94393.00
2023-02-05T01:26:52.769Z,94393.00
2023-02-05T01:27:52.834Z,94391.00
2023-02-05T01:28:52.855Z,94391.00
2023-02-05T01:29:52.924Z,94393.00
2023-02-05T01:30:53.015Z,94395.00
2023-02-05T01:31:53.082Z,94395.00
2023-02-05T01:32:53.030Z,94395.00
2023-02-05T01:33:53.077Z,94393.00
2023-02-05T01:34:53.124Z,94395.00
2023-02-05T01:35:53.166Z,94393.00
2023-02-05T01:36:53.222Z,94389.00
2023-02-05T01:37:53.254Z,94389.00
2023-02-05T01:39:53.348Z,94387.00
2023-02-05T01:40:53.395Z,94387.00
2023-02-05T01:41:53.445Z,94385.00
2023-02-05T01:42:53.483Z,94385.00
2023-02-05T01:43:53.540Z,94381.00
2023-02-05T01:44:53.595Z,94381.00
2023-02-05T01:45:53.619Z,94383.00
2023-02-05T01:46:53.676Z,94373.00
2023-02-05T01:47:53.712Z,94371.00
2023-02-05T01:48:53.761Z,94373.00
2023-02-05T03:25:58.158Z,94340.00
2023-02-05T03:26:58.204Z,94340.00
2023-02-05T03:27:58.288Z,94340.00
2023-02-05T03:28:58.322Z,94336.00
2023-02-05T03:29:58.386Z,94334.00
2023-02-05T03:30:58.472Z,94336.00
2023-02-05T03:31:58.479Z,94334.00
2023-02-05T03:32:58.531Z,94328.00
2023-02-05T03:33:58.590Z,94330.00
2023-02-05T03:34:58.649Z,94326.00
2023-02-05T03:35:58.716Z,94328.00
2023-02-05T03:36:58.764Z,94328.00
2023-02-05T03:37:58.816Z,94326.00
2023-02-05T03:38:58.883Z,94322.00
2023-02-05T03:39:58.939Z,94324.00
2023-02-05T03:40:58.984Z,94322.00
2023-02-05T03:41:59.035Z,94322.00
2023-02-05T03:42:59.152Z,94324.00
2023-02-05T03:43:59.145Z,94322.00
2023-02-05T03:44:59.209Z,94322.00
2023-02-05T03:45:59.322Z,94322.00
2023-02-05T03:46:59.295Z,94320.00
2023-02-05T03:47:59.354Z,94319.00
2023-02-05T03:48:59.411Z,94319.00
2023-02-05T03:49:59.467Z,94319.00
2023-02-05T03:50:59.543Z,94319.00
2023-02-05T03:51:59.572Z,94317.00
2023-02-05T03:52:59.634Z,94317.00
2023-02-05T03:53:59.691Z,94313.00
2023-02-05T03:54:59.744Z,94313.00
2023-02-05T03:55:59.801Z,94311.00
2023-02-05T03:56:59.856Z,94309.00
2023-02-05T03:57:59.912Z,94311.00
2023-02-05T03:58:59.955Z,94309.00
2023-02-05T04:00:00.037Z,94311.00
2023-02-05T04:01:00.115Z,94309.00
2023-02-05T04:02:00.165Z,94311.00
2023-02-05T04:03:00.173Z,94307.00
2023-02-05T04:04:00.234Z,94307.00
2023-02-05T04:05:00.330Z,94305.00
2023-02-05T04:06:00.333Z,94305.00
2023-02-05T04:07:00.388Z,94307.00
2023-02-05T04:08:00.443Z,94305.00
2023-02-05T04:09:00.499Z,94305.00
2023-02-05T04:10:00.574Z,94305.00
2023-02-05T04:11:00.613Z,94307.00
2023-02-05T04:12:00.670Z,94305.00
2023-02-05T04:13:00.719Z,94305.00
2023-02-05T04:14:00.756Z,94303.00
2023-02-05T04:15:01.026Z,94305.00
2023-02-05T04:16:00.873Z,94307.00
2023-02-05T04:17:00.927Z,94307.00
2023-02-05T04:18:00.994Z,94305.00
2023-02-05T04:19:01.051Z,94309.00
2023-02-05T04:20:01.147Z,94309.00
2023-02-05T04:21:01.175Z,94311.00
2023-02-05T04:22:01.233Z,94311.00
2023-02-05T04:23:01.275Z,94309.00
2023-02-05T04:24:01.378Z,94311.00
2023-02-05T04:25:01.391Z,94311.00
2023-02-05T04:26:01.445Z,94315.00
2023-02-05T04:27:01.536Z,94315.00
2023-02-05T04:28:01.619Z,94317.00
2023-02-05T04:29:01.610Z,94315.00
2023-02-05T04:30:01.663Z,94315.00
2023-02-05T04:31:01.760Z,94315.00
2023-02-05T06:12:09.201Z,94309.00
2023-02-05T06:13:08.224Z,94305.00
2023-02-05T06:14:08.299Z,94303.00
2023-02-05T06:15:08.367Z,94303.00
2023-02-05T06:16:08.488Z,94303.00
2023-02-05T06:17:08.501Z,94305.00
2023-02-05T06:18:08.567Z,94305.00
2023-02-05T06:19:08.649Z,94307.00
2023-02-05T06:20:08.699Z,94309.00
2023-02-05T06:21:08.782Z,94311.00
2023-02-05T06:22:08.838Z,94313.00
2023-02-05T06:23:08.912Z,94311.00
2023-02-05T06:24:08.963Z,94311.00
2023-02-05T06:25:09.035Z,94311.00
2023-02-05T06:26:09.094Z,94313.00
2023-02-05T06:27:09.159Z,94317.00
2023-02-05T06:28:09.241Z,94315.00
2023-02-05T06:29:09.301Z,94315.00
2023-02-05T06:30:09.474Z,94309.00
2023-02-05T06:31:09.569Z,94313.00
2023-02-05T06:32:09.492Z,94309.00
2023-02-05T06:33:09.570Z,94311.00
2023-02-05T06:34:09.631Z,94317.00
2023-02-05T06:35:09.704Z,94319.00
2023-02-05T06:36:09.761Z,94320.00
2023-02-05T06:37:09.835Z,94320.00
2023-02-05T06:38:09.916Z,94319.00
2023-02-05T06:39:09.963Z,94319.00
2023-02-05T06:40:10.029Z,94320.00
2023-02-05T06:41:10.099Z,94317.00
2023-02-05T06:42:10.168Z,94320.00
2023-02-05T06:43:10.261Z,94322.00
2023-02-05T06:44:10.306Z,94322.00
2023-02-05T06:45:10.370Z,94322.00
2023-02-05T06:46:10.501Z,94324.00
2023-02-05T06:47:10.522Z,94326.00
2023-02-05T06:48:10.623Z,94328.00
2023-02-05T06:49:10.660Z,94326.00
2023-02-05T06:50:10.733Z,94326.00
2023-02-05T06:51:10.796Z,94328.00
2023-02-05T06:52:10.870Z,94330.00
2023-02-05T06:53:11.907Z,94334.00
2023-02-05T08:40:18.122Z,94311.00
2023-02-05T08:41:18.187Z,94311.00
2023-02-05T08:42:18.267Z,94313.00
2023-02-05T08:43:18.344Z,94313.00
2023-02-05T08:44:18.411Z,94313.00
2023-02-05T08:45:18.483Z,94311.00
2023-02-05T08:46:18.646Z,94309.00
2023-02-05T08:47:18.617Z,94303.00
2023-02-05T08:48:18.699Z,94299.00
2023-02-05T08:49:18.773Z,94303.00
2023-02-05T08:50:18.854Z,94303.00
2023-02-05T08:51:18.909Z,94305.00
2023-02-05T08:52:18.969Z,94305.00
2023-02-05T08:53:19.044Z,94303.00
2023-02-05T08:54:19.107Z,94301.00
2023-02-05T08:55:19.191Z,94297.00
2023-02-05T08:56:20.247Z,94295.00
2023-02-05T08:57:19.305Z,94293.00
2023-02-05T08:58:19.353Z,94289.00
2023-02-05T08:59:19.415Z,94291.00
2023-02-05T09:00:19.465Z,94291.00
2023-02-05T09:01:19.527Z,94289.00
2023-02-05T09:02:19.593Z,94289.00
2023-02-05T09:03:19.663Z,94289.00
2023-02-05T09:04:19.772Z,94287.00
2023-02-05T09:05:19.753Z,94285.00
2023-02-05T09:06:19.816Z,94281.00
2023-02-05T09:07:19.861Z,94279.00
2023-02-05T09:08:19.901Z,94281.00
2023-02-05T09:09:19.966Z,94279.00
2023-02-05T09:10:20.000Z,94277.00
2023-02-05T09:11:20.049Z,94279.00
2023-02-05T09:12:20.096Z,94275.00
2023-02-05T09:13:20.156Z,94279.00
2023-02-05T09:14:20.187Z,94275.00
2023-02-05T09:15:20.248Z,94277.00
2023-02-05T09:16:21.010Z,94277.00
2023-02-05T09:17:20.312Z,94279.00
2023-02-05T09:18:20.368Z,94279.00
2023-02-05T09:19:20.410Z,94277.00
2023-02-05T09:20:20.441Z,94279.00
2023-02-05T09:21:20.485Z,94275.00
2023-02-05T09:22:20.512Z,94272.00
2023-02-05T09:23:20.545Z,94270.00
2023-02-05T09:24:20.578Z,94272.00
2023-02-05T09:25:20.612Z,94270.00
2023-02-05T09:26:20.646Z,94272.00
2023-02-05T09:28:20.757Z,94266.00
2023-02-05T09:29:20.756Z,94262.00
2023-02-05T09:30:20.778Z,94262.00
2023-02-05T09:31:20.942Z,94260.00
2023-02-05T12:31:28.137Z,94050.00
2023-02-05T12:32:28.136Z,94048.00
2023-02-05T12:33:28.564Z,94048.00
2023-02-05T12:34:28.227Z,94048.00
2023-02-05T12:35:28.279Z,94048.00
2023-02-05T12:36:28.332Z,94046.00
2023-02-05T12:37:28.355Z,94046.00
2023-02-05T12:38:32.536Z,94040.00
2023-02-05T12:39:28.427Z,94040.00
2023-02-05T12:40:28.451Z,94040.00
2023-02-05T12:41:28.468Z,94042.00
2023-02-05T12:42:28.483Z,94042.00
2023-02-05T12:43:28.510Z,94038.00
2023-02-05T12:44:29.243Z,94040.00
2023-02-05T12:45:28.554Z,94042.00
2023-02-05T12:46:28.590Z,94042.00
2023-02-05T12:47:28.641Z,94042.00
2023-02-05T12:48:28.648Z,94040.00
2023-02-05T12:49:28.684Z,94042.00
2023-02-05T12:50:28.711Z,94038.00
2023-02-05T12:51:28.726Z,94038.00
2023-02-05T12:52:28.753Z,94038.00
2023-02-05T12:53:28.772Z,94042.00
2023-02-05T12:54:28.806Z,94044.00
2023-02-05T12:55:28.823Z,94042.00
2023-02-05T12:56:28.849Z,94038.00
2023-02-05T12:57:28.872Z,94038.00
2023-02-05T12:58:28.908Z,94040.00
2023-02-05T12:59:28.933Z,94038.00
2023-02-05T13:00:28.944Z,94036.00
2023-02-05T13:01:29.036Z,94038.00
2023-02-05T13:02:28.991Z,94036.00
2023-02-05T13:03:29.021Z,94036.00
2023-02-05T13:04:29.084Z,94036.00
2023-02-05T13:05:29.057Z,94034.00
2023-02-05T13:06:29.074Z,94038.00
2023-02-05T13:07:29.097Z,94034.00
2023-02-05T13:08:29.122Z,94038.00
2023-02-05T13:09:29.145Z,94038.00
2023-02-05T13:10:29.160Z,94036.00
2023-02-05T13:11:29.219Z,94038.00
2023-02-05T13:12:29.285Z,94040.00
2023-02-05T13:13:29.349Z,94040.00
2023-02-05T13:14:29.396Z,94040.00
2023-02-05T13:15:29.475Z,94040.00
2023-02-05T13:16:29.881Z,94040.00
2023-02-05T13:17:29.578Z,94034.00
2023-02-05T13:18:29.647Z,94031.00
2023-02-05T13:19:29.699Z,94031.00
2023-02-05T13:20:29.782Z,94031.00
2023-02-05T13:21:29.833Z,94031.00
2023-02-05T13:22:29.889Z,94031.00
2023-02-05T13:23:29.947Z,94031.00
2023-02-05T13:24:30.004Z,94032.00
2023-02-05T13:25:37.885Z,94032.00
2023-02-05T13:26:31.097Z,94032.00
2023-02-05T13:27:30.111Z,94029.00
2023-02-05T15:30:38.201Z,93958.00
2023-02-05T15:31:38.284Z,93960.00
2023-02-05T15:32:38.358Z,93960.00
2023-02-05T15:33:38.439Z,93960.00
2023-02-05T15:34:38.542Z,93962.00
2023-02-05T15:35:38.612Z,93964.00
2023-02-05T15:36:38.696Z,93964.00
2023-02-05T15:37:38.782Z,93964.00
2023-02-05T15:38:38.871Z,93964.00
2023-02-05T15:39:38.962Z,93960.00
2023-02-05T15:40:39.031Z,93956.00
2023-02-05T15:41:39.130Z,93960.00
2023-02-05T15:42:39.194Z,93962.00
2023-02-05T15:43:39.286Z,93966.00
2023-02-05T15:44:39.362Z,93970.00
2023-02-05T15:45:39.460Z,93970.00
2023-02-05T15:46:39.565Z,93972.00
2023-02-05T15:47:39.631Z,93968.00
2023-02-05T15:48:39.735Z,93966.00
2023-02-05T15:49:39.821Z,93966.00
2023-02-05T15:50:39.909Z,93966.00
2023-02-05T15:51:40.005Z,93968.00
2023-02-05T15:52:40.094Z,93970.00
2023-02-05T15:53:40.197Z,93974.00
2023-02-05T15:54:40.268Z,93977.00
2023-02-05T15:55:40.362Z,93976.00
2023-02-05T15:56:40.443Z,93977.00
2023-02-05T15:57:40.536Z,93977.00
2023-02-05T15:58:40.634Z,93977.00
2023-02-05T15:59:40.712Z,93979.00
2023-02-05T16:00:40.789Z,93979.00
2023-02-05T16:01:40.897Z,93981.00
2023-02-05T16:02:40.981Z,93985.00
2023-02-05T16:03:41.066Z,93987.00
2023-02-05T16:04:41.142Z,93991.00
2023-02-05T16:05:41.239Z,93993.00
2023-02-05T16:06:41.322Z,93993.00
2023-02-05T16:07:41.434Z,93997.00
2023-02-05T16:08:41.516Z,93995.00
2023-02-05T16:09:41.608Z,93999.00
2023-02-05T16:10:41.705Z,94001.00
2023-02-05T17:16:48.141Z,94066.00
2023-02-05T17:17:48.238Z,94066.00
2023-02-05T17:18:48.327Z,94064.00
2023-02-05T17:21:48.619Z,94062.00
2023-02-05T17:26:49.106Z,94064.00
2023-02-05T19:55:58.136Z,94056.00
2023-02-05T19:56:58.180Z,94054.00
2023-02-05T19:57:58.189Z,94054.00
2023-02-05T19:58:58.246Z,94052.00
2023-02-05T19:59:58.274Z,94054.00
2023-02-05T20:00:58.309Z,94052.00
2023-02-05T20:01:58.398Z,94048.00
2023-02-05T20:02:58.418Z,94046.00
2023-02-05T20:03:58.471Z,94044.00
2023-02-05T20:04:58.499Z,94042.00
2023-02-05T20:05:58.523Z,94042.00
2023-02-05T20:06:58.566Z,94042.00
2023-02-05T20:07:58.598Z,94042.00
2023-02-05T20:08:58.635Z,94040.00
2023-02-05T20:09:58.648Z,94040.00
2023-02-05T20:10:58.715Z,94044.00
2023-02-05T20:11:58.760Z,94048.00
2023-02-05T20:12:58.798Z,94050.00
2023-02-05T20:13:58.870Z,94054.00
2023-02-05T20:14:58.902Z,94060.00
2023-02-05T20:15:59.014Z,94064.00
2023-02-05T20:16:59.053Z,94068.00
2023-02-05T20:17:59.115Z,94072.00
2023-02-05T20:18:59.233Z,94079.00
2023-02-05T20:20:10.299Z,94087.00
2023-02-05T20:21:00.433Z,94095.00
2023-02-05T20:21:59.374Z,94103.00
2023-02-05T20:22:59.395Z,94107.00
2023-02-05T20:23:59.420Z,94107.00
2023-02-05T20:24:59.444Z,94115.00
2023-02-05T20:25:59.463Z,94117.00
2023-02-05T20:26:59.501Z,94124.00
2023-02-05T20:27:59.584Z,94126.00
2023-02-05T20:28:59.556Z,94128.00
2023-02-05T20:29:59.595Z,94130.00
2023-02-05T20:30:59.704Z,94132.00
2023-02-05T20:31:59.649Z,94136.00
2023-02-05T20:32:59.685Z,94138.00
2023-02-05T20:33:59.724Z,94136.00
2023-02-05T20:36:59.930Z,94134.00
2023-02-05T20:38:00.089Z,94136.00
2023-02-05T20:39:00.072Z,94136.00
2023-02-05T21:41:02.481Z,94191.00
2023-02-05T22:01:03.228Z,94197.00
2023-02-05T22:02:03.241Z,94197.00
2023-02-05T22:03:03.286Z,94199.00
2023-02-05T22:04:03.318Z,94197.00
2023-02-05T22:05:03.353Z,94197.00
2023-02-05T22:06:03.366Z,94199.00
2023-02-05T22:07:03.416Z,94201.00
2023-02-05T22:08:03.441Z,94203.00
2023-02-05T22:09:03.475Z,94203.00
2023-02-05T22:10:03.521Z,94203.00
2023-02-05T22:11:03.544Z,94205.00
2023-02-05T22:12:03.631Z,94205.00
2023-02-05T22:13:03.628Z,94209.00
2023-02-05T22:14:03.685Z,94207.00
2023-02-05T22:15:03.715Z,94209.00
2023-02-05T22:16:03.790Z,94211.00
2023-02-05T22:17:03.772Z,94217.00
2023-02-05T22:18:03.842Z,94222.00
2023-02-05T22:19:03.864Z,94224.00
2023-02-05T22:20:03.899Z,94224.00
2023-02-05T22:21:03.942Z,94228.00
2023-02-05T22:22:03.977Z,94230.00
2023-02-05T22:23:03.996Z,94234.00
2023-02-05T22:24:04.062Z,94236.00
2023-02-05T23:07:05.658Z,94248.00
2023-02-05T23:08:05.698Z,94250.00
2023-02-05T23:09:05.730Z,94246.00
2023-02-05T23:10:05.781Z,94246.00
2023-02-05T23:11:05.797Z,94246.00
2023-02-05T23:12:05.849Z,94248.00
2023-02-05T23:13:05.882Z,94244.00
2023-02-05T23:14:05.929Z,94246.00
2023-02-05T23:15:05.945Z,94246.00
2023-02-05T23:16:05.976Z,94244.00
2023-02-05T23:17:06.011Z,94242.00
2023-02-05T23:18:06.066Z,94242.00
2023-02-05T23:19:06.084Z,94240.00
2023-02-05T23:20:06.152Z,94238.00
2023-02-05T23:21:06.185Z,94238.00
2023-02-05T23:22:06.215Z,94240.00
2023-02-05T23:23:06.242Z,94240.00
2023-02-05T23:24:06.272Z,94242.00
2023-02-05T23:25:06.306Z,94244.00
2023-02-05T23:26:06.341Z,94244.00
2023-02-05T23:27:06.371Z,94244.00
2023-02-05T23:28:06.452Z,94244.00
2023-02-05T23:29:06.444Z,94244.00
2023-02-05T23:30:06.476Z,94244.00
2023-02-05T23:31:06.623Z,94244.00
2023-02-05T23:32:06.546Z,94244.00
2023-02-05T23:33:06.591Z,94246.00
2023-02-05T23:34:06.622Z,94246.00
2023-02-05T23:35:06.661Z,94244.00
2023-02-05T23:36:06.701Z,94246.00
2023-02-05T23:37:06.735Z,94244.00
2023-02-05T23:38:06.774Z,94246.00
2023-02-05T23:39:06.803Z,94246.00
2023-02-05T23:40:06.856Z,94248.00
2023-02-05T23:41:06.885Z,94248.00
2023-02-05T23:42:06.909Z,94246.00
2023-02-05T23:43:06.945Z,94246.00
2023-02-05T23:44:06.993Z,94246.00
2023-02-05T23:45:07.042Z,94248.00
2023-02-05T23:46:07.132Z,94250.00
2023-02-05T23:47:07.124Z,94246.00
2023-02-05T23:48:07.151Z,94248.00
2023-02-05T23:49:07.198Z,94244.00
2023-02-05T23:50:07.226Z,94246.00
2023-02-05T23:51:07.282Z,94250.00
2023-02-05T23:52:07.313Z,94250.00
2023-02-05T23:53:07.368Z,94252.00
2023-02-05T23:54:07.403Z,94258.00
2023-02-05T23:55:07.428Z,94258.00
2023-02-05T23:56:07.486Z,94260.00
2023-02-05T23:57:07.519Z,94262.00
2023-02-05T23:58:07.568Z,94258.00
2023-02-05T23:59:07.612Z,94258.00
